Pagina principale
METAR-TAF:

METAR-TAF

Aeroporti :

Decimomannu, Italia

Aeroporto di Decimomannu

latitudine: 39-21N, longitudine: 008-58E, altezza: 29 m

Osservazione

Il bollettino è stato emesso 39 minuti fa, alle 09:55 UTC
Vento 8 kt da nord
Temperature 23°C
Umidità 53%
Pressione 1020 hPa
Visibilità 10 km o più
Poco nuvoloso ad un'altezza di 2000 ft

METAR: LIED 210955Z 35008KT 9999 FEW020 23/13 Q1020 RMK FEW VIS MIN 9999 WIND THR35 /////KT WIND THR17 /////KT BLU

Ora: 12:34 (10:34 UTC)

Previsione

Il bollettino è stato emesso 5 ore e 34 minuti fa, alle 05:00 UTC
Previsione valida dal 21 alle 06 UTC al 21 alle 15 UTC
Vento 5 kt da nord-ovest
Visibilità 10 km o più
nessuna nube inferiore a 1500 m e nessun cumulonembo

TAF: LIED 210500Z 2106/2115 32005KT CAVOK

Osservazioni e previsioni meteorologiche di più di 4000 aeroporti (messaggi METAR e TAF).

Le stazioni disponibili sono rappresentate dai dischi gialli e rossi sulla carta.

Puntare il mouse per vedere il nome della stazione.

Clicca sopra per visualizzare le osservazioni e previsioni meteorologiche.

Per cambiare la mappa : fare clic sui pulsanti verdi con una croce nera per ingrandire, il pulsante verde con un trattino per diminuire, o sulla freccia verde per le mappe adiacenti.


METAR-TAF: